sensor_id;sensor_type;location;lat;lon;timestamp;P1;durP1;ratioP1;P2;durP2;ratioP2
39218;SDS011;24934;52.752;6.964;2023-06-10T00:00:41;12.32;;;8.23;;
39218;SDS011;24934;52.752;6.964;2023-06-10T00:03:10;11.00;;;8.18;;
39218;SDS011;24934;52.752;6.964;2023-06-10T00:05:37;14.00;;;8.05;;
39218;SDS011;24934;52.752;6.964;2023-06-10T00:08:09;14.02;;;8.52;;
39218;SDS011;24934;52.752;6.964;2023-06-10T00:10:35;11.70;;;8.48;;
39218;SDS011;24934;52.752;6.964;2023-06-10T00:13:03;13.68;;;8.95;;
39218;SDS011;24934;52.752;6.964;2023-06-10T00:15:29;10.77;;;8.57;;
39218;SDS011;24934;52.752;6.964;2023-06-10T00:17:58;13.43;;;8.80;;
39218;SDS011;24934;52.752;6.964;2023-06-10T00:20:23;9.80;;;8.30;;
39218;SDS011;24934;52.752;6.964;2023-06-10T00:22:50;9.70;;;8.70;;
39218;SDS011;24934;52.752;6.964;2023-06-10T00:25:16;16.92;;;8.90;;
39218;SDS011;24934;52.752;6.964;2023-06-10T00:27:41;11.77;;;8.40;;
39218;SDS011;24934;52.752;6.964;2023-06-10T00:30:07;10.95;;;8.05;;
39218;SDS011;24934;52.752;6.964;2023-06-10T00:32:37;11.07;;;8.75;;
39218;SDS011;24934;52.752;6.964;2023-06-10T00:35:06;14.60;;;8.57;;
39218;SDS011;24934;52.752;6.964;2023-06-10T00:37:32;13.65;;;8.32;;
39218;SDS011;24934;52.752;6.964;2023-06-10T00:40:00;11.30;;;8.45;;
39218;SDS011;24934;52.752;6.964;2023-06-10T00:42:32;11.75;;;8.70;;
39218;SDS011;24934;52.752;6.964;2023-06-10T00:44:57;12.32;;;8.57;;
39218;SDS011;24934;52.752;6.964;2023-06-10T00:47:23;13.77;;;8.85;;
39218;SDS011;24934;52.752;6.964;2023-06-10T00:49:50;13.90;;;8.98;;
39218;SDS011;24934;52.752;6.964;2023-06-10T00:52:16;11.85;;;8.40;;
39218;SDS011;24934;52.752;6.964;2023-06-10T00:54:43;14.65;;;8.43;;
39218;SDS011;24934;52.752;6.964;2023-06-10T00:57:09;10.20;;;8.98;;
39218;SDS011;24934;52.752;6.964;2023-06-10T00:59:35;12.70;;;8.73;;
39218;SDS011;24934;52.752;6.964;2023-06-10T01:02:01;16.80;;;9.38;;
39218;SDS011;24934;52.752;6.964;2023-06-10T01:04:28;9.45;;;8.48;;
39218;SDS011;24934;52.752;6.964;2023-06-10T01:14:51;13.52;;;9.27;;
39218;SDS011;24934;52.752;6.964;2023-06-10T01:17:18;16.73;;;8.95;;
39218;SDS011;24934;52.752;6.964;2023-06-10T01:19:44;13.70;;;9.43;;
39218;SDS011;24934;52.752;6.964;2023-06-10T01:22:18;10.32;;;8.93;;
39218;SDS011;24934;52.752;6.964;2023-06-10T01:24:47;13.52;;;9.57;;
39218;SDS011;24934;52.752;6.964;2023-06-10T01:27:15;12.77;;;8.85;;
39218;SDS011;24934;52.752;6.964;2023-06-10T01:29:54;16.05;;;9.35;;
39218;SDS011;24934;52.752;6.964;2023-06-10T01:32:34;13.43;;;9.73;;
39218;SDS011;24934;52.752;6.964;2023-06-10T01:35:05;12.98;;;10.20;;
39218;SDS011;24934;52.752;6.964;2023-06-10T01:37:33;14.70;;;10.15;;
39218;SDS011;24934;52.752;6.964;2023-06-10T01:40:00;14.00;;;9.88;;
39218;SDS011;24934;52.752;6.964;2023-06-10T01:42:34;17.25;;;10.00;;
39218;SDS011;24934;52.752;6.964;2023-06-10T01:45:00;13.43;;;9.88;;
39218;SDS011;24934;52.752;6.964;2023-06-10T01:47:25;17.17;;;10.00;;
39218;SDS011;24934;52.752;6.964;2023-06-10T01:49:51;17.25;;;10.32;;
39218;SDS011;24934;52.752;6.964;2023-06-10T01:52:17;14.63;;;10.40;;
39218;SDS011;24934;52.752;6.964;2023-06-10T01:54:43;16.30;;;10.35;;
39218;SDS011;24934;52.752;6.964;2023-06-10T01:57:08;13.82;;;9.82;;
39218;SDS011;24934;52.752;6.964;2023-06-10T01:59:34;15.40;;;10.77;;
39218;SDS011;24934;52.752;6.964;2023-06-10T02:02:01;15.82;;;10.85;;
39218;SDS011;24934;52.752;6.964;2023-06-10T02:04:27;14.35;;;10.13;;
39218;SDS011;24934;52.752;6.964;2023-06-10T02:06:52;13.35;;;10.45;;
39218;SDS011;24934;52.752;6.964;2023-06-10T02:09:18;17.60;;;10.27;;
39218;SDS011;24934;52.752;6.964;2023-06-10T02:11:44;12.48;;;10.57;;
39218;SDS011;24934;52.752;6.964;2023-06-10T02:14:09;16.13;;;10.95;;
39218;SDS011;24934;52.752;6.964;2023-06-10T02:16:35;12.85;;;10.50;;
39218;SDS011;24934;52.752;6.964;2023-06-10T02:19:04;15.38;;;10.50;;
39218;SDS011;24934;52.752;6.964;2023-06-10T02:21:31;16.40;;;10.43;;
39218;SDS011;24934;52.752;6.964;2023-06-10T02:23:59;13.48;;;10.65;;
39218;SDS011;24934;52.752;6.964;2023-06-10T02:26:25;15.45;;;11.10;;
39218;SDS011;24934;52.752;6.964;2023-06-10T02:28:51;15.52;;;11.15;;
39218;SDS011;24934;52.752;6.964;2023-06-10T02:31:19;15.70;;;10.90;;
39218;SDS011;24934;52.752;6.964;2023-06-10T02:33:46;13.55;;;10.73;;
39218;SDS011;24934;52.752;6.964;2023-06-10T02:36:11;16.83;;;11.05;;
39218;SDS011;24934;52.752;6.964;2023-06-10T02:38:40;13.63;;;10.65;;
39218;SDS011;24934;52.752;6.964;2023-06-10T02:41:07;16.45;;;10.80;;
39218;SDS011;24934;52.752;6.964;2023-06-10T02:43:35;16.20;;;10.80;;
39218;SDS011;24934;52.752;6.964;2023-06-10T02:46:00;15.45;;;11.43;;
39218;SDS011;24934;52.752;6.964;2023-06-10T02:48:26;17.85;;;11.55;;
39218;SDS011;24934;52.752;6.964;2023-06-10T02:50:56;17.42;;;11.63;;
39218;SDS011;24934;52.752;6.964;2023-06-10T02:53:21;14.45;;;11.45;;
39218;SDS011;24934;52.752;6.964;2023-06-10T02:55:47;14.68;;;10.88;;
39218;SDS011;24934;52.752;6.964;2023-06-10T02:58:12;15.52;;;10.18;;
39218;SDS011;24934;52.752;6.964;2023-06-10T03:00:43;19.10;;;10.60;;
39218;SDS011;24934;52.752;6.964;2023-06-10T03:03:12;16.05;;;10.93;;
39218;SDS011;24934;52.752;6.964;2023-06-10T03:05:38;14.30;;;10.75;;
39218;SDS011;24934;52.752;6.964;2023-06-10T03:08:04;15.88;;;11.25;;
39218;SDS011;24934;52.752;6.964;2023-06-10T03:10:30;13.07;;;11.50;;
39218;SDS011;24934;52.752;6.964;2023-06-10T03:12:57;17.33;;;11.05;;
39218;SDS011;24934;52.752;6.964;2023-06-10T03:15:23;16.85;;;10.55;;
39218;SDS011;24934;52.752;6.964;2023-06-10T03:17:54;15.38;;;10.90;;
39218;SDS011;24934;52.752;6.964;2023-06-10T03:20:20;15.30;;;11.38;;
39218;SDS011;24934;52.752;6.964;2023-06-10T03:22:46;17.48;;;10.90;;
39218;SDS011;24934;52.752;6.964;2023-06-10T03:25:15;14.75;;;11.30;;
39218;SDS011;24934;52.752;6.964;2023-06-10T03:27:42;20.92;;;12.13;;
39218;SDS011;24934;52.752;6.964;2023-06-10T03:30:08;17.67;;;11.52;;
39218;SDS011;24934;52.752;6.964;2023-06-10T03:32:34;16.95;;;11.52;;
39218;SDS011;24934;52.752;6.964;2023-06-10T03:35:03;19.08;;;11.88;;
39218;SDS011;24934;52.752;6.964;2023-06-10T03:37:29;18.00;;;12.18;;
39218;SDS011;24934;52.752;6.964;2023-06-10T03:39:55;15.35;;;11.52;;
39218;SDS011;24934;52.752;6.964;2023-06-10T03:42:21;19.27;;;11.85;;
39218;SDS011;24934;52.752;6.964;2023-06-10T03:44:46;15.18;;;10.73;;
39218;SDS011;24934;52.752;6.964;2023-06-10T03:47:12;16.35;;;11.45;;
39218;SDS011;24934;52.752;6.964;2023-06-10T03:49:38;13.93;;;10.30;;
39218;SDS011;24934;52.752;6.964;2023-06-10T03:52:05;16.48;;;10.50;;
39218;SDS011;24934;52.752;6.964;2023-06-10T03:54:33;17.13;;;10.85;;
39218;SDS011;24934;52.752;6.964;2023-06-10T03:57:01;19.25;;;11.63;;
39218;SDS011;24934;52.752;6.964;2023-06-10T03:59:28;14.07;;;11.05;;
39218;SDS011;24934;52.752;6.964;2023-06-10T04:01:53;20.17;;;11.48;;
39218;SDS011;24934;52.752;6.964;2023-06-10T04:04:19;18.08;;;12.00;;
39218;SDS011;24934;52.752;6.964;2023-06-10T04:06:45;13.57;;;11.05;;
39218;SDS011;24934;52.752;6.964;2023-06-10T04:09:11;14.68;;;10.30;;
39218;SDS011;24934;52.752;6.964;2023-06-10T04:11:37;14.25;;;9.95;;
39218;SDS011;24934;52.752;6.964;2023-06-10T04:14:03;17.60;;;11.27;;
39218;SDS011;24934;52.752;6.964;2023-06-10T04:16:29;16.10;;;10.45;;
39218;SDS011;24934;52.752;6.964;2023-06-10T04:18:54;15.98;;;10.50;;
39218;SDS011;24934;52.752;6.964;2023-06-10T04:21:20;15.45;;;10.77;;
39218;SDS011;24934;52.752;6.964;2023-06-10T04:23:47;18.50;;;10.40;;
39218;SDS011;24934;52.752;6.964;2023-06-10T04:26:15;18.15;;;10.70;;
39218;SDS011;24934;52.752;6.964;2023-06-10T04:28:42;16.33;;;10.60;;
39218;SDS011;24934;52.752;6.964;2023-06-10T04:31:11;16.77;;;10.38;;
39218;SDS011;24934;52.752;6.964;2023-06-10T04:33:37;14.85;;;10.18;;
39218;SDS011;24934;52.752;6.964;2023-06-10T04:36:06;15.85;;;10.70;;
39218;SDS011;24934;52.752;6.964;2023-06-10T04:38:32;17.05;;;10.75;;
39218;SDS011;24934;52.752;6.964;2023-06-10T04:41:00;22.23;;;10.75;;
39218;SDS011;24934;52.752;6.964;2023-06-10T04:43:26;14.00;;;10.35;;
39218;SDS011;24934;52.752;6.964;2023-06-10T04:45:53;14.25;;;10.23;;
39218;SDS011;24934;52.752;6.964;2023-06-10T04:48:19;16.30;;;10.52;;
39218;SDS011;24934;52.752;6.964;2023-06-10T04:50:45;13.30;;;10.20;;
39218;SDS011;24934;52.752;6.964;2023-06-10T04:53:10;15.45;;;10.20;;
39218;SDS011;24934;52.752;6.964;2023-06-10T04:55:39;17.00;;;10.13;;
39218;SDS011;24934;52.752;6.964;2023-06-10T04:58:07;16.73;;;10.55;;
39218;SDS011;24934;52.752;6.964;2023-06-10T05:00:33;13.60;;;9.85;;
39218;SDS011;24934;52.752;6.964;2023-06-10T05:03:01;22.50;;;10.38;;
39218;SDS011;24934;52.752;6.964;2023-06-10T05:05:27;15.45;;;10.60;;
39218;SDS011;24934;52.752;6.964;2023-06-10T05:07:52;13.75;;;9.77;;
39218;SDS011;24934;52.752;6.964;2023-06-10T05:10:18;13.55;;;9.82;;
39218;SDS011;24934;52.752;6.964;2023-06-10T05:12:44;14.55;;;9.40;;
39218;SDS011;24934;52.752;6.964;2023-06-10T05:15:10;16.73;;;9.68;;
39218;SDS011;24934;52.752;6.964;2023-06-10T05:17:36;15.75;;;9.63;;
39218;SDS011;24934;52.752;6.964;2023-06-10T05:20:02;13.68;;;10.02;;
39218;SDS011;24934;52.752;6.964;2023-06-10T05:22:28;14.80;;;9.98;;
39218;SDS011;24934;52.752;6.964;2023-06-10T05:24:53;16.73;;;10.02;;
39218;SDS011;24934;52.752;6.964;2023-06-10T05:27:22;16.90;;;9.85;;
39218;SDS011;24934;52.752;6.964;2023-06-10T05:29:48;16.65;;;9.98;;
39218;SDS011;24934;52.752;6.964;2023-06-10T05:32:13;14.32;;;9.23;;
39218;SDS011;24934;52.752;6.964;2023-06-10T05:34:39;16.75;;;9.88;;
39218;SDS011;24934;52.752;6.964;2023-06-10T05:37:05;17.17;;;10.10;;
39218;SDS011;24934;52.752;6.964;2023-06-10T05:39:31;13.25;;;9.57;;
39218;SDS011;24934;52.752;6.964;2023-06-10T05:41:56;16.30;;;9.77;;
39218;SDS011;24934;52.752;6.964;2023-06-10T05:44:24;15.45;;;9.50;;
39218;SDS011;24934;52.752;6.964;2023-06-10T05:46:50;14.40;;;9.75;;
39218;SDS011;24934;52.752;6.964;2023-06-10T05:49:16;12.18;;;9.48;;
39218;SDS011;24934;52.752;6.964;2023-06-10T05:51:47;16.00;;;9.80;;
39218;SDS011;24934;52.752;6.964;2023-06-10T05:54:12;13.40;;;9.93;;
39218;SDS011;24934;52.752;6.964;2023-06-10T05:56:38;16.23;;;10.35;;
39218;SDS011;24934;52.752;6.964;2023-06-10T05:59:04;20.10;;;9.80;;
39218;SDS011;24934;52.752;6.964;2023-06-10T06:01:30;13.80;;;9.45;;
39218;SDS011;24934;52.752;6.964;2023-06-10T06:03:56;17.58;;;9.90;;
39218;SDS011;24934;52.752;6.964;2023-06-10T06:06:29;13.98;;;9.32;;
39218;SDS011;24934;52.752;6.964;2023-06-10T06:08:55;16.65;;;9.80;;
39218;SDS011;24934;52.752;6.964;2023-06-10T06:11:20;17.85;;;10.45;;
39218;SDS011;24934;52.752;6.964;2023-06-10T06:13:46;18.52;;;9.70;;
39218;SDS011;24934;52.752;6.964;2023-06-10T06:16:13;12.93;;;8.98;;
39218;SDS011;24934;52.752;6.964;2023-06-10T06:18:39;14.82;;;8.70;;
39218;SDS011;24934;52.752;6.964;2023-06-10T06:21:04;15.30;;;9.30;;
39218;SDS011;24934;52.752;6.964;2023-06-10T06:23:30;11.95;;;8.80;;
39218;SDS011;24934;52.752;6.964;2023-06-10T06:25:56;14.50;;;9.02;;
39218;SDS011;24934;52.752;6.964;2023-06-10T06:28:21;15.82;;;8.15;;
39218;SDS011;24934;52.752;6.964;2023-06-10T06:30:47;19.00;;;8.75;;
39218;SDS011;24934;52.752;6.964;2023-06-10T06:33:13;16.90;;;9.18;;
39218;SDS011;24934;52.752;6.964;2023-06-10T06:35:41;19.05;;;8.32;;
39218;SDS011;24934;52.752;6.964;2023-06-10T06:38:10;15.60;;;7.95;;
39218;SDS011;24934;52.752;6.964;2023-06-10T06:40:37;11.82;;;7.65;;
39218;SDS011;24934;52.752;6.964;2023-06-10T06:43:03;16.02;;;8.40;;
39218;SDS011;24934;52.752;6.964;2023-06-10T06:45:29;13.07;;;8.18;;
39218;SDS011;24934;52.752;6.964;2023-06-10T06:47:55;15.57;;;7.68;;
39218;SDS011;24934;52.752;6.964;2023-06-10T06:50:21;16.67;;;8.00;;
39218;SDS011;24934;52.752;6.964;2023-06-10T06:52:46;13.27;;;8.20;;
39218;SDS011;24934;52.752;6.964;2023-06-10T06:55:12;10.55;;;6.80;;
39218;SDS011;24934;52.752;6.964;2023-06-10T06:57:38;14.73;;;7.43;;
39218;SDS011;24934;52.752;6.964;2023-06-10T07:00:07;10.93;;;7.85;;
39218;SDS011;24934;52.752;6.964;2023-06-10T07:02:44;16.65;;;8.68;;
39218;SDS011;24934;52.752;6.964;2023-06-10T07:05:10;11.30;;;7.80;;
39218;SDS011;24934;52.752;6.964;2023-06-10T07:07:36;13.95;;;7.78;;
39218;SDS011;24934;52.752;6.964;2023-06-10T07:10:01;16.67;;;8.38;;
39218;SDS011;24934;52.752;6.964;2023-06-10T07:12:31;13.20;;;8.30;;
39218;SDS011;24934;52.752;6.964;2023-06-10T07:15:05;12.18;;;7.65;;
39218;SDS011;24934;52.752;6.964;2023-06-10T07:17:31;12.15;;;8.00;;
39218;SDS011;24934;52.752;6.964;2023-06-10T07:19:56;12.10;;;8.02;;
39218;SDS011;24934;52.752;6.964;2023-06-10T07:22:24;13.15;;;8.65;;
39218;SDS011;24934;52.752;6.964;2023-06-10T07:24:53;12.77;;;8.07;;
39218;SDS011;24934;52.752;6.964;2023-06-10T07:27:20;13.88;;;8.10;;
39218;SDS011;24934;52.752;6.964;2023-06-10T07:29:49;17.45;;;8.48;;
39218;SDS011;24934;52.752;6.964;2023-06-10T07:32:15;16.55;;;8.85;;
39218;SDS011;24934;52.752;6.964;2023-06-10T07:34:41;13.95;;;8.13;;
39218;SDS011;24934;52.752;6.964;2023-06-10T07:37:09;13.10;;;9.70;;
39218;SDS011;24934;52.752;6.964;2023-06-10T07:39:36;14.40;;;8.50;;
39218;SDS011;24934;52.752;6.964;2023-06-10T07:42:02;12.30;;;7.88;;
39218;SDS011;24934;52.752;6.964;2023-06-10T07:44:28;11.38;;;8.15;;
39218;SDS011;24934;52.752;6.964;2023-06-10T07:47:02;12.55;;;7.95;;
39218;SDS011;24934;52.752;6.964;2023-06-10T07:49:31;11.85;;;8.52;;
39218;SDS011;24934;52.752;6.964;2023-06-10T07:51:57;13.27;;;9.13;;
39218;SDS011;24934;52.752;6.964;2023-06-10T07:54:22;19.67;;;9.20;;
39218;SDS011;24934;52.752;6.964;2023-06-10T07:56:48;13.35;;;8.90;;
39218;SDS011;24934;52.752;6.964;2023-06-10T07:59:16;11.65;;;9.18;;
39218;SDS011;24934;52.752;6.964;2023-06-10T08:01:42;14.55;;;9.65;;
39218;SDS011;24934;52.752;6.964;2023-06-10T08:04:08;12.43;;;8.65;;
39218;SDS011;24934;52.752;6.964;2023-06-10T08:06:33;16.85;;;8.88;;
39218;SDS011;24934;52.752;6.964;2023-06-10T08:08:59;12.43;;;8.82;;
39218;SDS011;24934;52.752;6.964;2023-06-10T08:11:28;14.27;;;8.73;;
39218;SDS011;24934;52.752;6.964;2023-06-10T08:13:56;11.30;;;8.70;;
39218;SDS011;24934;52.752;6.964;2023-06-10T08:16:21;10.55;;;8.70;;
39218;SDS011;24934;52.752;6.964;2023-06-10T08:18:53;14.55;;;10.48;;
39218;SDS011;24934;52.752;6.964;2023-06-10T08:21:18;12.02;;;9.02;;
39218;SDS011;24934;52.752;6.964;2023-06-10T08:24:01;11.95;;;9.20;;
39218;SDS011;24934;52.752;6.964;2023-06-10T08:26:38;11.80;;;9.27;;
39218;SDS011;24934;52.752;6.964;2023-06-10T08:29:04;11.75;;;9.68;;
39218;SDS011;24934;52.752;6.964;2023-06-10T08:31:30;13.75;;;10.93;;
39218;SDS011;24934;52.752;6.964;2023-06-10T08:33:58;16.98;;;12.05;;
39218;SDS011;24934;52.752;6.964;2023-06-10T08:36:23;13.95;;;10.70;;
39218;SDS011;24934;52.752;6.964;2023-06-10T08:38:49;11.93;;;9.55;;
39218;SDS011;24934;52.752;6.964;2023-06-10T08:41:20;12.82;;;10.20;;
39218;SDS011;24934;52.752;6.964;2023-06-10T08:43:53;17.85;;;11.52;;
39218;SDS011;24934;52.752;6.964;2023-06-10T08:46:24;13.60;;;11.10;;
39218;SDS011;24934;52.752;6.964;2023-06-10T08:48:52;12.40;;;10.18;;
39218;SDS011;24934;52.752;6.964;2023-06-10T08:51:20;11.57;;;9.90;;
39218;SDS011;24934;52.752;6.964;2023-06-10T08:54:03;12.20;;;10.13;;
39218;SDS011;24934;52.752;6.964;2023-06-10T08:56:35;14.10;;;11.35;;
39218;SDS011;24934;52.752;6.964;2023-06-10T08:59:07;12.40;;;10.35;;
39218;SDS011;24934;52.752;6.964;2023-06-10T09:01:34;13.50;;;10.60;;
39218;SDS011;24934;52.752;6.964;2023-06-10T09:04:00;12.63;;;11.25;;
39218;SDS011;24934;52.752;6.964;2023-06-10T09:06:32;12.10;;;10.80;;
39218;SDS011;24934;52.752;6.964;2023-06-10T09:08:59;11.88;;;10.68;;
39218;SDS011;24934;52.752;6.964;2023-06-10T09:11:25;13.27;;;10.50;;
39218;SDS011;24934;52.752;6.964;2023-06-10T09:13:51;11.95;;;10.73;;
39218;SDS011;24934;52.752;6.964;2023-06-10T09:16:17;14.25;;;10.75;;
39218;SDS011;24934;52.752;6.964;2023-06-10T09:18:46;13.52;;;10.82;;
39218;SDS011;24934;52.752;6.964;2023-06-10T09:21:13;11.60;;;10.40;;
39218;SDS011;24934;52.752;6.964;2023-06-10T09:23:42;11.60;;;10.27;;
39218;SDS011;24934;52.752;6.964;2023-06-10T09:26:08;11.32;;;10.13;;
39218;SDS011;24934;52.752;6.964;2023-06-10T09:28:36;11.18;;;10.00;;
39218;SDS011;24934;52.752;6.964;2023-06-10T09:31:07;10.55;;;9.55;;
39218;SDS011;24934;52.752;6.964;2023-06-10T09:33:36;10.57;;;9.52;;
39218;SDS011;24934;52.752;6.964;2023-06-10T09:36:05;11.63;;;9.80;;
39218;SDS011;24934;52.752;6.964;2023-06-10T09:38:31;10.98;;;9.38;;
39218;SDS011;24934;52.752;6.964;2023-06-10T09:40:58;10.18;;;8.80;;
39218;SDS011;24934;52.752;6.964;2023-06-10T09:43:39;9.80;;;8.80;;
39218;SDS011;24934;52.752;6.964;2023-06-10T09:46:06;9.70;;;8.90;;
39218;SDS011;24934;52.752;6.964;2023-06-10T09:48:45;9.85;;;8.85;;
39218;SDS011;24934;52.752;6.964;2023-06-10T09:51:15;9.70;;;8.80;;
39218;SDS011;24934;52.752;6.964;2023-06-10T09:53:53;9.88;;;8.15;;
39218;SDS011;24934;52.752;6.964;2023-06-10T09:56:19;10.00;;;8.90;;
39218;SDS011;24934;52.752;6.964;2023-06-10T09:58:45;9.57;;;8.60;;
39218;SDS011;24934;52.752;6.964;2023-06-10T10:01:12;9.27;;;8.35;;
39218;SDS011;24934;52.752;6.964;2023-06-10T10:03:44;8.70;;;7.90;;
39218;SDS011;24934;52.752;6.964;2023-06-10T10:06:17;8.68;;;7.88;;
39218;SDS011;24934;52.752;6.964;2023-06-10T10:08:48;8.95;;;8.05;;
39218;SDS011;24934;52.752;6.964;2023-06-10T10:11:19;9.45;;;8.30;;
39218;SDS011;24934;52.752;6.964;2023-06-10T10:13:48;10.98;;;8.70;;
39218;SDS011;24934;52.752;6.964;2023-06-10T10:16:16;8.43;;;7.72;;
39218;SDS011;24934;52.752;6.964;2023-06-10T10:18:50;8.60;;;7.90;;
39218;SDS011;24934;52.752;6.964;2023-06-10T10:21:23;9.70;;;8.18;;
39218;SDS011;24934;52.752;6.964;2023-06-10T10:24:02;9.02;;;8.13;;
39218;SDS011;24934;52.752;6.964;2023-06-10T10:26:37;8.88;;;7.95;;
39218;SDS011;24934;52.752;6.964;2023-06-10T10:31:54;8.90;;;8.00;;
39218;SDS011;24934;52.752;6.964;2023-06-10T10:34:35;9.13;;;8.32;;
39218;SDS011;24934;52.752;6.964;2023-06-10T10:37:08;8.75;;;7.95;;
39218;SDS011;24934;52.752;6.964;2023-06-10T10:39:34;9.13;;;8.30;;
39218;SDS011;24934;52.752;6.964;2023-06-10T10:42:01;9.63;;;8.20;;
39218;SDS011;24934;52.752;6.964;2023-06-10T10:44:43;8.68;;;7.60;;
39218;SDS011;24934;52.752;6.964;2023-06-10T10:47:09;29.33;;;22.25;;
39218;SDS011;24934;52.752;6.964;2023-06-10T10:49:37;10.80;;;9.88;;
39218;SDS011;24934;52.752;6.964;2023-06-10T10:52:10;9.10;;;8.30;;
39218;SDS011;24934;52.752;6.964;2023-06-10T10:54:37;8.45;;;7.65;;
39218;SDS011;24934;52.752;6.964;2023-06-10T10:57:15;9.02;;;8.13;;
39218;SDS011;24934;52.752;6.964;2023-06-10T11:02:17;8.73;;;7.60;;
39218;SDS011;24934;52.752;6.964;2023-06-10T11:04:47;11.23;;;8.30;;
39218;SDS011;24934;52.752;6.964;2023-06-10T11:07:20;9.20;;;8.40;;
39218;SDS011;24934;52.752;6.964;2023-06-10T11:10:04;9.10;;;8.40;;
39218;SDS011;24934;52.752;6.964;2023-06-10T11:12:50;9.07;;;8.35;;
39218;SDS011;24934;52.752;6.964;2023-06-10T11:15:21;8.80;;;8.00;;
39218;SDS011;24934;52.752;6.964;2023-06-10T11:31:30;8.80;;;7.88;;
39218;SDS011;24934;52.752;6.964;2023-06-10T11:33:58;9.25;;;8.00;;
39218;SDS011;24934;52.752;6.964;2023-06-10T11:36:32;8.63;;;7.93;;
39218;SDS011;24934;52.752;6.964;2023-06-10T11:39:04;8.32;;;7.68;;
39218;SDS011;24934;52.752;6.964;2023-06-10T11:41:34;8.88;;;8.00;;
39218;SDS011;24934;52.752;6.964;2023-06-10T11:44:02;8.57;;;7.78;;
39218;SDS011;24934;52.752;6.964;2023-06-10T11:46:40;11.32;;;8.20;;
39218;SDS011;24934;52.752;6.964;2023-06-10T11:49:09;9.02;;;7.93;;
39218;SDS011;24934;52.752;6.964;2023-06-10T11:51:37;9.02;;;8.32;;
39218;SDS011;24934;52.752;6.964;2023-06-10T11:54:05;8.18;;;7.57;;
39218;SDS011;24934;52.752;6.964;2023-06-10T11:56:35;8.55;;;7.70;;
39218;SDS011;24934;52.752;6.964;2023-06-10T12:01:55;8.73;;;7.93;;
39218;SDS011;24934;52.752;6.964;2023-06-10T12:04:21;8.80;;;8.10;;
39218;SDS011;24934;52.752;6.964;2023-06-10T12:06:51;8.45;;;7.75;;
39218;SDS011;24934;52.752;6.964;2023-06-10T12:09:29;8.40;;;7.80;;
39218;SDS011;24934;52.752;6.964;2023-06-10T12:12:04;8.40;;;7.60;;
39218;SDS011;24934;52.752;6.964;2023-06-10T12:20:47;9.02;;;8.32;;
39218;SDS011;24934;52.752;6.964;2023-06-10T12:22:52;8.50;;;7.90;;
39218;SDS011;24934;52.752;6.964;2023-06-10T12:25:23;9.38;;;8.38;;
39218;SDS011;24934;52.752;6.964;2023-06-10T12:27:53;9.20;;;8.40;;
39218;SDS011;24934;52.752;6.964;2023-06-10T12:30:24;9.30;;;8.57;;
39218;SDS011;24934;52.752;6.964;2023-06-10T12:32:51;9.00;;;8.30;;
39218;SDS011;24934;52.752;6.964;2023-06-10T12:35:19;9.65;;;8.75;;
39218;SDS011;24934;52.752;6.964;2023-06-10T12:38:03;9.90;;;9.20;;
39218;SDS011;24934;52.752;6.964;2023-06-10T12:40:38;10.07;;;9.07;;
39218;SDS011;24934;52.752;6.964;2023-06-10T12:43:09;10.05;;;9.15;;
39218;SDS011;24934;52.752;6.964;2023-06-10T12:45:48;10.30;;;9.00;;
39218;SDS011;24934;52.752;6.964;2023-06-10T12:50:44;10.57;;;9.55;;
39218;SDS011;24934;52.752;6.964;2023-06-10T12:53:12;9.93;;;8.95;;
39218;SDS011;24934;52.752;6.964;2023-06-10T12:55:38;9.82;;;8.85;;
39218;SDS011;24934;52.752;6.964;2023-06-10T12:58:03;9.13;;;8.40;;
39218;SDS011;24934;52.752;6.964;2023-06-10T13:00:29;9.90;;;8.90;;
39218;SDS011;24934;52.752;6.964;2023-06-10T13:02:56;9.70;;;8.80;;
39218;SDS011;24934;52.752;6.964;2023-06-10T13:05:23;9.80;;;8.95;;
39218;SDS011;24934;52.752;6.964;2023-06-10T13:07:52;9.80;;;8.80;;
39218;SDS011;24934;52.752;6.964;2023-06-10T13:10:21;9.68;;;8.77;;
39218;SDS011;24934;52.752;6.964;2023-06-10T13:12:47;9.40;;;8.70;;
39218;SDS011;24934;52.752;6.964;2023-06-10T13:15:13;10.38;;;9.38;;
39218;SDS011;24934;52.752;6.964;2023-06-10T13:17:39;10.00;;;9.20;;
39218;SDS011;24934;52.752;6.964;2023-06-10T13:20:06;9.85;;;9.05;;
39218;SDS011;24934;52.752;6.964;2023-06-10T13:22:32;9.73;;;8.93;;
39218;SDS011;24934;52.752;6.964;2023-06-10T13:25:00;10.50;;;9.60;;
39218;SDS011;24934;52.752;6.964;2023-06-10T13:27:28;10.57;;;9.55;;
39218;SDS011;24934;52.752;6.964;2023-06-10T13:29:56;10.52;;;9.50;;
39218;SDS011;24934;52.752;6.964;2023-06-10T13:32:22;11.32;;;10.23;;
39218;SDS011;24934;52.752;6.964;2023-06-10T13:34:47;10.88;;;9.80;;
39218;SDS011;24934;52.752;6.964;2023-06-10T13:37:14;10.52;;;9.50;;
39218;SDS011;24934;52.752;6.964;2023-06-10T13:39:46;10.48;;;9.68;;
39218;SDS011;24934;52.752;6.964;2023-06-10T13:42:19;10.90;;;9.93;;
39218;SDS011;24934;52.752;6.964;2023-06-10T13:44:50;10.40;;;9.52;;
39218;SDS011;24934;52.752;6.964;2023-06-10T13:47:17;10.25;;;9.35;;
39218;SDS011;24934;52.752;6.964;2023-06-10T13:49:46;10.35;;;9.45;;
39218;SDS011;24934;52.752;6.964;2023-06-10T13:52:11;10.88;;;9.90;;
39218;SDS011;24934;52.752;6.964;2023-06-10T13:54:37;10.13;;;9.13;;
39218;SDS011;24934;52.752;6.964;2023-06-10T13:57:03;10.50;;;9.60;;
39218;SDS011;24934;52.752;6.964;2023-06-10T13:59:29;9.70;;;8.80;;
39218;SDS011;24934;52.752;6.964;2023-06-10T14:01:54;10.35;;;9.55;;
39218;SDS011;24934;52.752;6.964;2023-06-10T14:04:21;9.98;;;9.07;;
39218;SDS011;24934;52.752;6.964;2023-06-10T14:06:47;10.13;;;9.23;;
39218;SDS011;24934;52.752;6.964;2023-06-10T14:09:13;10.27;;;9.45;;
39218;SDS011;24934;52.752;6.964;2023-06-10T14:11:39;9.95;;;9.05;;
39218;SDS011;24934;52.752;6.964;2023-06-10T14:14:05;10.32;;;9.40;;
39218;SDS011;24934;52.752;6.964;2023-06-10T14:16:31;10.05;;;9.18;;
39218;SDS011;24934;52.752;6.964;2023-06-10T14:18:57;10.20;;;9.30;;
39218;SDS011;24934;52.752;6.964;2023-06-10T14:21:25;9.98;;;9.10;;
39218;SDS011;24934;52.752;6.964;2023-06-10T14:23:52;10.20;;;9.30;;
39218;SDS011;24934;52.752;6.964;2023-06-10T14:26:18;9.50;;;8.70;;
39218;SDS011;24934;52.752;6.964;2023-06-10T14:28:47;9.80;;;9.00;;
39218;SDS011;24934;52.752;6.964;2023-06-10T14:31:14;9.25;;;8.45;;
39218;SDS011;24934;52.752;6.964;2023-06-10T14:33:41;10.13;;;9.23;;
39218;SDS011;24934;52.752;6.964;2023-06-10T14:36:08;9.57;;;8.68;;
39218;SDS011;24934;52.752;6.964;2023-06-10T14:38:35;11.45;;;8.45;;
39218;SDS011;24934;52.752;6.964;2023-06-10T14:41:00;9.52;;;8.73;;
39218;SDS011;24934;52.752;6.964;2023-06-10T14:43:28;9.68;;;8.82;;
39218;SDS011;24934;52.752;6.964;2023-06-10T14:45:54;10.27;;;8.57;;
39218;SDS011;24934;52.752;6.964;2023-06-10T14:48:21;9.30;;;8.50;;
39218;SDS011;24934;52.752;6.964;2023-06-10T14:50:47;9.43;;;8.65;;
39218;SDS011;24934;52.752;6.964;2023-06-10T14:53:16;8.93;;;8.20;;
39218;SDS011;24934;52.752;6.964;2023-06-10T14:55:42;9.23;;;8.52;;
39218;SDS011;24934;52.752;6.964;2023-06-10T14:58:08;9.18;;;8.48;;
39218;SDS011;24934;52.752;6.964;2023-06-10T15:00:33;9.60;;;8.80;;
39218;SDS011;24934;52.752;6.964;2023-06-10T15:03:02;9.48;;;8.77;;
39218;SDS011;24934;52.752;6.964;2023-06-10T15:05:28;9.52;;;8.63;;
39218;SDS011;24934;52.752;6.964;2023-06-10T15:08:00;9.65;;;8.75;;
39218;SDS011;24934;52.752;6.964;2023-06-10T15:10:26;8.50;;;7.80;;
39218;SDS011;24934;52.752;6.964;2023-06-10T15:12:52;8.77;;;8.07;;
39218;SDS011;24934;52.752;6.964;2023-06-10T15:15:21;9.00;;;8.30;;